Time;durP1;ratioP1;P1;durP2;ratioP2;P2;SDS_P1;SDS_P2;PMS_P1;PMS_P2;Temp;Humidity;BMP_temperature;BMP_pressure;BME280_temperature;BME280_humidity;BME280_pressure;Samples;Min_cycle;Max_cycle;Signal;HPM_P1;HPM_P2
2022/01/15 00:00:42;;;;;;;2.53;2.03;;;5.10;99.90;4.80;103034.00;;;;5077190;28;20257;-68
2022/01/15 00:03:12;;;;;;;3.87;3.57;;;5.10;99.90;4.80;103031.00;;;;5094744;28;20199;-68
2022/01/15 00:05:39;;;;;;;5.37;5.07;;;5.10;99.90;4.90;103035.00;;;;5094507;28;20180;-66
2022/01/15 00:08:05;;;;;;;3.37;3.17;;;5.10;99.90;5.50;103025.00;;;;5077943;28;20526;-65
2022/01/15 00:10:32;;;;;;;2.23;2.13;;;5.20;99.90;5.90;103021.00;;;;5092771;28;20259;-66
2022/01/15 00:13:01;;;;;;;0.57;0.57;;;5.50;99.90;5.80;103017.00;;;;5077337;28;20674;-66
2022/01/15 00:15:39;;;;;;;3.87;3.57;;;5.60;99.90;5.50;103009.00;;;;5094101;28;20269;-66
2022/01/15 00:18:10;;;;;;;1.30;1.30;;;5.60;99.90;4.80;102996.00;;;;5079209;28;20189;-66
2022/01/15 00:20:36;;;;;;;9.73;5.57;;;5.30;99.90;5.40;102993.00;;;;5094317;28;20165;-66
2022/01/15 00:23:03;;;;;;;4.57;4.10;;;5.40;99.90;4.70;102946.00;;;;5094238;28;20187;-66
2022/01/15 00:25:31;;;;;;;0.80;0.80;;;5.20;99.90;5.20;102953.00;;;;5077164;28;20189;-66
2022/01/15 00:27:59;;;;;;;7.10;5.87;;;5.10;99.90;5.30;102948.00;;;;5077425;28;20184;-66
2022/01/15 00:30:28;;;;;;;3.20;2.90;;;5.10;99.90;5.50;102995.00;;;;5077282;28;20182;-66
2022/01/15 00:32:54;;;;;;;1.90;1.80;;;5.30;99.90;4.90;102989.00;;;;5077083;28;20215;-66
2022/01/15 00:35:24;;;;;;;2.57;2.40;;;5.10;99.90;4.70;102993.00;;;;5093816;28;20210;-66
2022/01/15 00:37:50;;;;;;;5.23;4.27;;;5.00;99.90;4.60;102992.00;;;;5094054;28;20251;-66
2022/01/15 00:40:19;;;;;;;2.33;1.90;;;4.80;99.90;4.90;102936.00;;;;5093866;28;20619;-67
2022/01/15 00:42:46;;;;;;;2.63;2.40;;;5.00;99.90;4.70;102983.00;;;;5093897;28;20270;-67
2022/01/15 00:45:18;;;;;;;6.20;3.17;;;5.00;99.90;5.10;102986.00;;;;5093995;28;20182;-67
2022/01/15 00:47:44;;;;;;;0.97;0.97;;;5.00;99.90;4.80;102977.00;;;;5094087;28;20168;-67
2022/01/15 00:50:11;;;;;;;0.30;0.30;;;5.00;99.90;5.10;102976.00;;;;5076583;28;20216;-67
2022/01/15 00:52:42;;;;;;;7.93;7.30;;;5.10;99.90;5.60;102977.00;;;;5076877;28;20197;-67
2022/01/15 00:55:10;;;;;;;2.30;2.20;;;5.30;99.90;5.50;102920.00;;;;5092889;28;20182;-67
2022/01/15 00:57:36;;;;;;;1.10;1.00;;;5.30;99.90;5.50;102936.00;;;;5094883;28;20184;-68
2022/01/15 01:00:05;;;;;;;2.63;2.50;;;5.30;99.90;5.40;102825.00;;;;5093350;28;20177;-68
2022/01/15 01:02:31;;;;;;;11.13;10.03;;;5.40;99.90;4.60;102951.00;;;;5087631;28;20192;-67
2022/01/15 01:04:57;;;;;;;7.47;4.77;;;5.10;99.90;4.60;102921.00;;;;5114817;28;20177;-67
2022/01/15 01:07:23;;;;;;;7.90;5.77;;;4.90;99.90;4.40;102918.00;;;;5096124;28;20206;-67
2022/01/15 01:10:48;;;;;;;5.63;3.40;;;4.80;99.90;4.70;102912.00;;;;5096069;28;20194;-67
2022/01/15 01:23:20;;;;;;;2.10;1.93;;;5.00;99.90;4.30;102933.00;;;;5113288;28;20196;-67
2022/01/15 01:25:50;;;;;;;2.73;2.50;;;4.80;99.90;4.80;102939.00;;;;5095477;28;20219;-67
2022/01/15 01:28:29;;;;;;;3.37;1.90;;;4.80;99.90;4.30;102930.00;;;;5096430;28;20191;-67
2022/01/15 01:31:02;;;;;;;2.43;2.27;;;4.70;99.90;4.40;102930.00;;;;5097662;28;20189;-67
2022/01/15 01:38:34;;;;;;;5.97;4.40;;;4.70;99.90;4.60;102923.00;;;;5112723;28;20200;-66
2022/01/15 01:41:01;;;;;;;8.67;7.73;;;4.70;99.90;4.60;102903.00;;;;5096449;28;20223;-67
2022/01/15 01:46:20;;;;;;;3.00;2.63;;;4.70;99.90;4.10;102852.00;;;;5112480;28;20191;-66
2022/01/15 01:48:47;;;;;;;4.37;3.80;;;4.50;99.90;4.40;102911.00;;;;5098488;28;20176;-67
2022/01/15 01:51:35;;;;;;;9.37;7.33;;;4.50;99.90;3.90;102923.00;;;;5112942;28;20204;-67
2022/01/15 01:54:08;;;;;;;6.97;4.03;;;4.50;99.90;3.60;102896.00;;;;5096652;28;20195;-67
2022/01/15 01:56:35;;;;;;;16.67;10.10;;;4.30;99.90;3.40;102912.00;;;;5113254;28;20190;-67
2022/01/15 01:59:03;;;;;;;8.70;6.60;;;4.00;99.90;3.90;102926.00;;;;5095925;28;20176;-67
2022/01/15 02:01:29;;;;;;;2.70;2.50;;;4.10;99.90;4.10;102937.00;;;;5112816;28;20188;-67
2022/01/15 02:03:56;;;;;;;1.23;1.13;;;4.30;99.90;4.60;102918.00;;;;5096117;28;20271;-68
2022/01/15 02:06:25;;;;;;;5.73;4.87;;;4.40;99.90;4.70;102891.00;;;;5096062;28;20267;-68
2022/01/15 02:08:53;;;;;;;0.60;0.60;;;4.50;99.90;4.60;102871.00;;;;5095962;28;20176;-67
2022/01/15 02:11:19;;;;;;;4.73;4.37;;;4.60;99.90;4.70;102918.00;;;;5112777;28;20202;-67
2022/01/15 02:13:46;;;;;;;1.00;0.73;;;4.60;99.90;5.40;102872.00;;;;5112733;28;20183;-68
2022/01/15 02:16:14;;;;;;;2.00;1.90;;;4.90;99.90;5.20;102860.00;;;;5112323;28;20211;-68
2022/01/15 02:18:41;;;;;;;2.87;2.67;;;4.90;99.90;4.50;102914.00;;;;5114113;28;20181;-68
2022/01/15 02:23:41;;;;;;;3.63;3.40;;;4.60;99.90;4.30;102912.00;;;;5106889;28;20192;-68
2022/01/15 02:26:19;;;;;;;11.33;7.33;;;4.50;99.90;4.50;102906.00;;;;5076411;28;20176;-68
2022/01/15 02:28:57;;;;;;;5.40;4.93;;;4.60;99.90;4.30;102844.00;;;;5090028;28;20191;-68
2022/01/15 02:31:25;;;;;;;2.33;2.20;;;4.50;99.90;4.50;102855.00;;;;5093242;28;20597;-68
2022/01/15 02:33:53;;;;;;;1.70;1.63;;;4.60;99.90;4.40;102902.00;;;;5075500;28;20185;-67
2022/01/15 02:36:23;;;;;;;18.73;12.37;;;4.50;99.90;4.60;102881.00;;;;5095541;28;20181;-68
2022/01/15 02:38:51;;;;;;;0.67;0.67;;;4.60;99.90;4.80;102880.00;;;;5095223;28;20179;-67
2022/01/15 02:41:33;;;;;;;6.60;3.20;;;4.60;99.90;4.40;102897.00;;;;5112698;28;20186;-68
2022/01/15 02:44:04;;;;;;;13.13;7.87;;;4.60;99.90;4.40;102857.00;;;;5112068;28;20646;-68
2022/01/15 02:49:03;;;;;;;1.33;1.30;;;4.40;99.90;4.30;102823.00;;;;5111723;28;20281;-68
2022/01/15 02:51:34;;;;;;;21.07;10.03;;;4.50;99.90;4.80;102865.00;;;;5111849;28;20244;-68
2022/01/15 02:54:02;;;;;;;8.13;5.77;;;4.60;99.90;4.30;102870.00;;;;5112927;28;20203;-68
2022/01/15 02:56:43;;;;;;;13.80;8.47;;;4.50;99.90;4.10;102868.00;;;;5095006;28;20257;-68
2022/01/15 02:59:20;;;;;;;3.87;2.83;;;4.40;99.90;4.50;102867.00;;;;5094946;28;20187;-69
2022/01/15 03:01:48;;;;;;;4.67;4.13;;;4.50;99.90;4.30;102865.00;;;;5095232;28;20184;-68
2022/01/15 03:04:15;;;;;;;6.30;5.80;;;4.40;99.90;4.20;102845.00;;;;5113344;28;20634;-68
2022/01/15 03:06:42;;;;;;;3.77;3.43;;;4.40;99.90;4.40;102841.00;;;;5113635;28;20220;-68
2022/01/15 03:09:08;;;;;;;5.83;3.40;;;4.40;99.90;4.20;102850.00;;;;5112374;28;20188;-68
2022/01/15 03:11:34;;;;;;;4.93;4.63;;;4.40;99.90;3.90;102848.00;;;;5095075;28;20693;-68
2022/01/15 03:14:01;;;;;;;5.73;5.17;;;4.30;99.90;4.50;102818.00;;;;5111743;28;20180;-68
2022/01/15 03:16:30;;;;;;;2.70;2.47;;;4.40;99.90;4.30;102845.00;;;;5112289;28;20619;-68
2022/01/15 03:18:56;;;;;;;7.17;6.43;;;4.40;99.90;3.40;102830.00;;;;5097021;28;20615;-68
2022/01/15 03:21:24;;;;;;;3.80;3.50;;;4.10;99.90;3.70;102770.00;;;;5099243;28;20191;-67
2022/01/15 03:23:49;;;;;;;13.33;5.70;;;4.20;99.90;4.30;102825.00;;;;5098656;28;20187;-68
2022/01/15 03:26:15;;;;;;;8.13;5.07;;;4.30;99.90;3.80;102824.00;;;;5115859;28;20335;-67
2022/01/15 03:28:43;;;;;;;1.63;1.53;;;4.20;99.90;4.50;102818.00;;;;5115285;28;20181;-68
2022/01/15 03:31:09;;;;;;;7.70;5.83;;;4.30;99.90;3.90;102827.00;;;;5097961;28;20549;-68
2022/01/15 03:33:36;;;;;;;8.03;7.23;;;4.40;99.90;3.70;102823.00;;;;5115695;28;20190;-68
2022/01/15 03:36:02;;;;;;;6.60;6.00;;;4.10;99.90;4.10;102827.00;;;;5098879;28;20631;-67
2022/01/15 03:38:28;;;;;;;2.00;1.90;;;4.10;99.90;4.40;102822.00;;;;5115438;28;20577;-67
2022/01/15 03:40:54;;;;;;;2.23;2.17;;;4.30;99.90;4.70;102815.00;;;;5098602;28;20180;-67
2022/01/15 03:43:21;;;;;;;2.27;1.97;;;4.50;99.90;5.00;102824.00;;;;5115190;28;20184;-67
2022/01/15 03:45:47;;;;;;;12.40;7.67;;;4.70;99.90;3.90;102756.00;;;;5116048;28;20198;-67
2022/01/15 03:48:13;;;;;;;6.13;5.35;;;4.50;99.90;4.20;102795.00;;;;5097407;28;20836;-67
2022/01/15 03:50:39;;;;;;;2.57;2.43;;;4.40;99.90;4.00;102802.00;;;;5115230;28;20185;-67
2022/01/15 03:53:05;;;;;;;0.50;0.50;;;4.30;99.90;4.20;102796.00;;;;5098354;28;20268;-67
2022/01/15 03:55:31;;;;;;;6.10;5.70;;;4.40;99.90;3.90;102791.00;;;;5098401;28;20184;-67
2022/01/15 03:57:59;;;;;;;8.17;7.30;;;4.20;99.90;3.90;102774.00;;;;5097895;28;20200;-67
2022/01/15 04:00:26;;;;;;;6.07;5.43;;;4.20;99.90;3.90;102805.00;;;;5115152;28;20176;-68
2022/01/15 04:02:55;;;;;;;6.57;5.40;;;4.30;99.90;3.30;102781.00;;;;5115072;28;20172;-67
2022/01/15 04:05:22;;;;;;;8.37;5.63;;;4.00;99.90;3.70;102775.00;;;;5097486;28;20657;-67
2022/01/15 04:07:48;;;;;;;6.20;5.60;;;4.10;99.90;3.80;102791.00;;;;5114600;28;20740;-67
2022/01/15 04:10:15;;;;;;;1.50;0.70;;;4.00;99.90;4.10;102802.00;;;;5097448;28;20195;-67
2022/01/15 04:12:44;;;;;;;8.70;3.87;;;4.10;99.90;3.90;102793.00;;;;5113832;28;20505;-67
2022/01/15 04:15:15;;;;;;;4.30;3.90;;;4.20;99.90;4.10;102787.00;;;;5114379;28;20188;-68
2022/01/15 04:17:44;;;;;;;10.27;9.27;;;4.20;99.90;3.90;102726.00;;;;5096712;28;20185;-68
2022/01/15 04:20:11;;;;;;;1.43;1.33;;;4.20;99.90;4.00;102773.00;;;;5097439;28;20547;-68
2022/01/15 04:22:40;;;;;;;5.10;3.00;;;4.10;99.90;4.30;102783.00;;;;5097381;28;20556;-68
2022/01/15 04:25:07;;;;;;;2.40;2.17;;;4.30;99.90;4.50;102767.00;;;;5114307;28;20184;-68
2022/01/15 04:27:33;;;;;;;15.17;3.80;;;4.40;99.90;4.20;102735.00;;;;5113482;28;20194;-68
2022/01/15 04:30:03;;;;;;;2.63;2.43;;;4.40;99.90;4.70;102770.00;;;;5096950;28;20628;-68
2022/01/15 04:32:29;;;;;;;7.43;4.73;;;4.50;99.90;4.40;102728.00;;;;5114109;28;20313;-68
2022/01/15 04:34:56;;;;;;;2.60;2.50;;;4.50;99.90;4.40;102761.00;;;;5096776;28;20224;-68
2022/01/15 04:37:32;;;;;;;0.87;0.87;;;4.50;99.90;4.70;102757.00;;;;5114294;28;20176;-68
2022/01/15 04:40:00;;;;;;;2.10;1.67;;;4.60;99.90;4.00;102697.00;;;;5114703;28;20266;-68
2022/01/15 04:42:26;;;;;;;7.17;6.50;;;4.40;99.90;3.90;102748.00;;;;5114086;28;20195;-68
2022/01/15 04:44:52;;;;;;;6.90;2.87;;;4.40;99.90;3.80;102743.00;;;;5097094;28;20200;-67
2022/01/15 04:47:17;;;;;;;14.33;9.23;;;4.20;99.90;3.50;102748.00;;;;5115149;28;20194;-68
2022/01/15 04:49:43;;;;;;;10.23;6.87;;;4.10;99.90;3.80;102749.00;;;;5113878;28;20188;-68
2022/01/15 04:52:09;;;;;;;9.73;6.17;;;4.00;99.90;3.90;102743.00;;;;5097293;28;20203;-68
2022/01/15 04:54:36;;;;;;;1.03;0.97;;;4.10;99.90;4.10;102712.00;;;;5113801;28;20173;-68
2022/01/15 04:57:03;;;;;;;10.07;7.63;;;4.20;99.90;3.80;102735.00;;;;5114327;28;20537;-69
2022/01/15 04:59:31;;;;;;;9.63;4.93;;;4.20;99.90;3.60;102671.00;;;;5096956;28;20583;-68
2022/01/15 05:01:58;;;;;;;4.90;4.47;;;4.10;99.90;3.80;102738.00;;;;5096515;28;20307;-68
2022/01/15 05:04:24;;;;;;;5.70;3.50;;;4.10;99.90;3.70;102689.00;;;;5113350;28;20188;-69
2022/01/15 05:06:53;;;;;;;2.77;2.50;;;4.10;99.90;4.30;102676.00;;;;5113174;28;20279;-67
2022/01/15 05:09:19;;;;;;;9.27;8.17;;;4.20;99.90;3.70;102719.00;;;;5112787;28;20418;-68
2022/01/15 05:11:58;;;;;;;5.97;2.93;;;4.10;99.90;4.20;102718.00;;;;5113039;28;20252;-67
2022/01/15 05:14:24;;;;;;;4.60;2.83;;;4.20;99.90;4.40;102722.00;;;;5098191;28;20202;-67
2022/01/15 05:16:50;;;;;;;13.03;9.20;;;4.30;99.90;3.90;102724.00;;;;5096074;28;20207;-68
2022/01/15 05:19:16;;;;;;;1.70;1.60;;;4.20;99.90;3.80;102666.00;;;;5113409;28;20286;-68
2022/01/15 05:21:42;;;;;;;9.93;5.43;;;4.10;99.90;4.10;102714.00;;;;5112905;28;20195;-67
2022/01/15 05:24:07;;;;;;;8.97;7.90;;;4.20;99.90;4.20;102705.00;;;;5112666;28;20639;-67
2022/01/15 05:26:34;;;;;;;8.33;5.80;;;4.20;99.90;4.40;102659.00;;;;5095800;28;20199;-68
2022/01/15 05:29:00;;;;;;;6.07;5.23;;;4.30;99.90;4.60;102666.00;;;;5096044;28;20603;-68
2022/01/15 05:31:26;;;;;;;5.90;5.37;;;4.40;99.90;4.50;102707.00;;;;5113929;28;20200;-68
2022/01/15 05:33:53;;;;;;;3.47;2.37;;;4.50;99.90;4.00;102666.00;;;;5114043;28;20276;-67
2022/01/15 05:36:19;;;;;;;26.33;10.10;;;4.30;99.90;3.80;102705.00;;;;5112945;28;20191;-68
2022/01/15 05:38:45;;;;;;;5.83;5.30;;;4.20;99.90;3.90;102696.00;;;;5095288;28;20180;-68
2022/01/15 05:41:11;;;;;;;1.20;1.20;;;4.20;99.90;4.30;102703.00;;;;5112451;28;20246;-68
2022/01/15 05:43:37;;;;;;;5.07;3.53;;;4.30;99.90;4.20;102634.00;;;;5113572;28;20626;-68
2022/01/15 05:46:03;;;;;;;14.77;8.80;;;4.30;99.90;4.20;102700.00;;;;5113022;28;20188;-68
2022/01/15 05:48:29;;;;;;;1.60;1.53;;;4.30;99.90;4.20;102649.00;;;;5096090;28;20219;-68
2022/01/15 05:50:55;;;;;;;5.93;3.03;;;4.30;99.90;3.90;102699.00;;;;5095792;28;20185;-67
2022/01/15 05:53:21;;;;;;;19.57;9.23;;;4.20;99.90;4.00;102655.00;;;;5112670;28;20680;-67
2022/01/15 05:55:46;;;;;;;2.77;2.67;;;4.10;99.90;3.90;102692.00;;;;5113357;28;20164;-67
2022/01/15 05:58:12;;;;;;;9.67;8.43;;;4.10;99.90;3.90;102694.00;;;;5113027;28;20533;-67
2022/01/15 06:00:38;;;;;;;6.00;5.50;;;4.10;99.90;3.90;102688.00;;;;5095937;28;20200;-67
2022/01/15 06:03:04;;;;;;;6.40;5.80;;;4.00;99.90;3.60;102689.00;;;;5095369;28;20204;-67
2022/01/15 06:05:30;;;;;;;6.37;5.07;;;3.90;99.90;3.90;102639.00;;;;5112123;28;20183;-67
2022/01/15 06:07:59;;;;;;;10.37;6.47;;;4.00;99.90;3.60;102638.00;;;;5095000;28;20194;-68
2022/01/15 06:10:24;;;;;;;4.97;4.57;;;3.90;99.90;3.60;102686.00;;;;5112243;28;20193;-67
2022/01/15 06:12:50;;;;;;;9.67;7.37;;;3.90;99.90;3.60;102671.00;;;;5094858;28;20534;-67
2022/01/15 06:15:20;;;;;;;13.83;7.30;;;3.90;99.90;3.50;102684.00;;;;5112405;28;20199;-68
2022/01/15 06:17:46;;;;;;;15.93;7.90;;;3.90;99.90;4.00;102673.00;;;;5111935;28;20208;-68
2022/01/15 06:20:15;;;;;;;6.93;6.17;;;4.00;99.90;3.90;102681.00;;;;5112169;28;20585;-68
2022/01/15 06:22:41;;;;;;;4.57;3.83;;;3.90;99.90;4.10;102671.00;;;;5111308;28;20620;-68
2022/01/15 06:25:08;;;;;;;6.37;3.53;;;4.00;99.90;3.90;102690.00;;;;5094982;28;20184;-68
2022/01/15 06:27:34;;;;;;;5.37;4.87;;;4.10;99.90;4.00;102680.00;;;;5113401;28;20202;-68
2022/01/15 06:30:00;;;;;;;2.23;2.13;;;4.10;99.90;3.80;102680.00;;;;5095006;28;20702;-68
2022/01/15 06:32:27;;;;;;;10.53;6.57;;;3.90;99.90;3.80;102682.00;;;;5094431;28;20244;-69
2022/01/15 06:34:53;;;;;;;7.67;5.97;;;3.80;99.90;3.60;102641.00;;;;5095271;28;20184;-69
2022/01/15 06:37:20;;;;;;;6.53;5.97;;;3.80;99.90;3.70;102684.00;;;;5111832;28;20180;-67
2022/01/15 06:39:47;;;;;;;23.60;9.07;;;3.90;99.90;3.80;102691.00;;;;5095246;28;20192;-67
2022/01/15 06:42:13;;;;;;;6.33;3.60;;;3.80;99.90;3.90;102665.00;;;;5112022;28;20184;-67
2022/01/15 06:44:39;;;;;;;6.13;4.47;;;3.90;99.90;3.90;102682.00;;;;5113140;28;20194;-67
2022/01/15 06:47:05;;;;;;;5.67;4.33;;;4.00;99.90;4.00;102679.00;;;;5094556;28;20188;-67
2022/01/15 06:49:31;;;;;;;13.33;9.17;;;4.00;99.90;3.50;102673.00;;;;5094828;28;20279;-67
2022/01/15 06:51:57;;;;;;;16.07;8.67;;;3.80;99.90;3.90;102650.00;;;;5111714;28;20253;-67
2022/01/15 06:54:23;;;;;;;4.57;4.13;;;3.90;99.90;3.80;102675.00;;;;5097200;28;20192;-67
2022/01/15 06:56:49;;;;;;;8.10;6.00;;;4.00;99.90;4.00;102664.00;;;;5117087;28;20211;-67
2022/01/15 06:59:15;;;;;;;9.60;6.13;;;4.00;99.90;3.90;102657.00;;;;5098437;28;20231;-67
2022/01/15 07:01:41;;;;;;;1.30;1.07;;;4.00;99.90;3.80;102646.00;;;;5115692;28;20188;-69
2022/01/15 07:04:07;;;;;;;1.27;1.23;;;3.90;99.90;3.50;102613.00;;;;5115889;28;20215;-66
2022/01/15 07:06:33;;;;;;;4.43;2.87;;;3.80;99.90;4.20;102662.00;;;;5098664;28;20187;-65
2022/01/15 07:08:58;;;;;;;10.33;9.27;;;4.10;99.90;4.00;102659.00;;;;5098198;28;20214;-66
2022/01/15 07:11:24;;;;;;;12.47;7.23;;;4.10;99.90;4.10;102610.00;;;;5115706;28;20195;-66
2022/01/15 07:13:50;;;;;;;0.47;0.47;;;4.10;99.90;4.10;102666.00;;;;5115231;28;20180;-66
2022/01/15 07:16:44;;;;;;;5.47;2.93;;;4.10;99.90;3.80;102663.00;;;;5098359;28;20188;-66
2022/01/15 07:19:10;;;;;;;2.63;2.43;;;4.00;99.90;4.00;102653.00;;;;5100851;28;20176;-66
2022/01/15 07:21:36;;;;;;;6.67;4.70;;;4.00;99.90;3.50;102653.00;;;;5115137;28;20580;-66
2022/01/15 07:24:02;;;;;;;7.67;3.90;;;3.90;99.90;3.50;102607.00;;;;5115193;28;20207;-66
2022/01/15 07:26:29;;;;;;;9.20;6.23;;;3.80;99.90;3.70;102613.00;;;;5115329;28;20185;-66
2022/01/15 07:28:57;;;;;;;12.13;8.47;;;3.70;99.90;3.50;102617.00;;;;5097744;28;20242;-66
2022/01/15 07:31:23;;;;;;;11.53;7.30;;;3.70;99.90;3.50;102647.00;;;;5115367;28;20263;-67
2022/01/15 07:33:56;;;;;;;3.43;1.80;;;3.70;99.90;3.10;102651.00;;;;5098109;28;20283;-67
2022/01/15 07:36:25;;;;;;;4.10;3.80;;;3.50;99.90;3.60;102601.00;;;;5116028;28;20196;-68
2022/01/15 07:39:09;;;;;;;1.27;1.23;;;3.60;99.90;3.20;102653.00;;;;5097913;28;20194;-67
2022/01/15 07:41:56;;;;;;;9.77;7.03;;;3.50;99.90;3.40;102651.00;;;;5114980;28;20249;-68
2022/01/15 07:44:32;;;;;;;15.03;7.77;;;3.60;99.90;3.50;102641.00;;;;5114947;28;20655;-67
2022/01/15 07:47:01;;;;;;;9.33;4.90;;;3.60;99.90;3.40;102640.00;;;;5114661;28;20192;-68
2022/01/15 07:49:32;;;;;;;12.87;5.83;;;3.60;99.90;3.50;102589.00;;;;5114403;28;20214;-67
2022/01/15 07:51:59;;;;;;;9.03;4.93;;;3.60;99.90;3.50;102610.00;;;;5115151;28;20203;-68
2022/01/15 07:54:29;;;;;;;11.03;6.60;;;3.60;99.90;3.80;102651.00;;;;5114933;28;20184;-69
2022/01/15 07:56:55;;;;;;;5.10;4.57;;;3.70;99.90;3.70;102643.00;;;;5115260;28;20184;-69
2022/01/15 07:59:38;;;;;;;9.30;4.40;;;3.70;99.90;3.30;102594.00;;;;5114761;28;20194;-69
2022/01/15 08:02:08;;;;;;;13.70;10.17;;;3.60;99.90;3.20;102653.00;;;;5114317;28;20278;-69
2022/01/15 08:04:34;;;;;;;21.60;6.53;;;3.50;99.90;3.40;102610.00;;;;5114062;28;20242;-67
2022/01/15 08:07:03;;;;;;;3.60;3.40;;;3.50;99.90;3.30;102629.00;;;;5114646;28;20571;-67
2022/01/15 08:09:29;;;;;;;2.30;2.10;;;3.60;99.90;3.40;102607.00;;;;5097548;28;20199;-68
2022/01/15 08:11:55;;;;;;;4.57;3.30;;;3.60;99.90;3.20;102664.00;;;;5114380;28;20211;-64
2022/01/15 08:14:21;;;;;;;6.47;5.03;;;3.50;99.90;3.50;102654.00;;;;5097536;28;20199;-66
2022/01/15 08:17:04;;;;;;;24.43;15.73;;;3.50;99.90;3.10;102653.00;;;;5097459;28;20283;-66
2022/01/15 08:19:31;;;;;;;8.20;4.87;;;3.40;99.90;3.30;102643.00;;;;5113941;28;20623;-67
2022/01/15 08:21:58;;;;;;;13.47;3.57;;;3.40;99.90;3.10;102652.00;;;;5114268;28;20287;-66
2022/01/15 08:24:24;;;;;;;9.07;8.20;;;3.30;99.90;3.30;102666.00;;;;5114047;28;20191;-66
2022/01/15 08:26:51;;;;;;;2.00;1.30;;;3.40;99.90;2.90;102658.00;;;;5114702;28;20192;-66
2022/01/15 08:29:18;;;;;;;7.23;4.03;;;3.30;99.90;2.80;102668.00;;;;5113670;28;20216;-67
2022/01/15 08:31:44;;;;;;;4.93;4.43;;;3.20;99.90;2.80;102621.00;;;;5113904;28;20261;-66
2022/01/15 08:34:21;;;;;;;11.80;5.77;;;3.20;99.90;3.00;102657.00;;;;5114012;28;20542;-69
2022/01/15 08:36:49;;;;;;;6.13;4.90;;;3.20;99.90;3.40;102615.00;;;;5097918;28;20575;-68
2022/01/15 08:39:17;;;;;;;2.20;2.10;;;3.40;99.90;3.30;102659.00;;;;5096692;28;20647;-67
2022/01/15 08:41:48;;;;;;;21.43;10.00;;;3.40;99.90;3.30;102669.00;;;;5113620;28;20192;-67
2022/01/15 08:44:16;;;;;;;3.70;3.03;;;3.40;99.90;3.80;102680.00;;;;5114055;28;20241;-67
2022/01/15 08:46:51;;;;;;;7.93;4.63;;;3.60;99.90;2.90;102655.00;;;;5114944;28;20180;-66
2022/01/15 08:50:00;;;;;;;6.20;4.80;;;3.50;99.90;3.90;102668.00;;;;5096721;28;20209;-67
2022/01/15 08:52:29;;;;;;;4.47;3.90;;;3.70;99.90;3.40;102657.00;;;;5113405;28;20218;-67
2022/01/15 08:54:58;;;;;;;2.37;2.27;;;3.60;99.90;4.00;102651.00;;;;5113960;28;20631;-67
2022/01/15 08:57:24;;;;;;;15.13;6.63;;;3.80;99.90;3.60;102643.00;;;;5113253;28;20218;-67
2022/01/15 08:59:53;;;;;;;14.07;8.23;;;3.70;99.90;3.80;102644.00;;;;5096665;28;20215;-66
2022/01/15 09:02:23;;;;;;;2.13;2.03;;;3.80;99.90;3.70;102582.00;;;;5096283;28;20237;-68
2022/01/15 09:05:25;;;;;;;6.30;5.57;;;3.70;99.90;3.70;102646.00;;;;5096655;28;20282;-68
2022/01/15 09:07:52;;;;;;;7.03;4.70;;;3.70;99.90;3.70;102610.00;;;;5096474;28;20188;-70
2022/01/15 09:10:20;;;;;;;19.73;12.33;;;3.80;99.90;3.50;102638.00;;;;5096498;28;20187;-68
2022/01/15 09:12:46;;;;;;;10.83;5.53;;;3.60;99.90;3.90;102627.00;;;;5096011;28;20311;-69
2022/01/15 09:15:14;;;;;;;15.27;8.13;;;3.80;99.90;4.00;102643.00;;;;5112774;28;20195;-69
2022/01/15 09:17:42;;;;;;;8.20;7.40;;;3.90;99.90;3.60;102648.00;;;;5107866;28;20195;-69
2022/01/15 09:20:09;;;;;;;4.73;4.00;;;3.80;99.90;3.40;102589.00;;;;5090380;28;20199;-69
2022/01/15 09:22:34;;;;;;;4.40;4.13;;;3.70;99.90;3.70;102638.00;;;;5102395;28;20189;-69
2022/01/15 09:25:00;;;;;;;5.70;5.10;;;3.70;99.90;3.80;102639.00;;;;5112290;28;20180;-69
2022/01/15 09:30:16;;;;;;;16.77;11.43;;;3.70;99.90;3.70;102609.00;;;;5113180;28;20238;-68
2022/01/15 09:32:48;;;;;;;9.17;6.83;;;3.80;99.90;3.80;102564.00;;;;5111998;28;20211;-68
2022/01/15 09:35:17;;;;;;;7.67;6.23;;;3.90;99.90;3.70;102633.00;;;;5094774;28;20237;-69
2022/01/15 09:37:43;;;;;;;12.17;6.80;;;3.90;99.90;3.60;102631.00;;;;5110695;28;20184;-67
2022/01/15 09:40:10;;;;;;;10.57;7.90;;;3.90;99.90;3.70;102638.00;;;;5095922;28;20671;-68
2022/01/15 09:42:42;;;;;;;7.53;2.37;;;3.80;99.90;3.70;102633.00;;;;5095373;28;20191;-67
2022/01/15 09:45:12;;;;;;;7.57;6.07;;;3.80;99.90;3.60;102625.00;;;;5112300;28;20219;-67
2022/01/15 09:47:39;;;;;;;8.03;2.77;;;3.80;99.90;3.50;102629.00;;;;5112559;28;20211;-68
2022/01/15 09:50:16;;;;;;;7.03;2.90;;;3.70;99.90;3.40;102638.00;;;;5112713;28;20183;-68
2022/01/15 09:52:42;;;;;;;6.87;4.27;;;3.70;99.90;3.20;102587.00;;;;5095447;28;20234;-68
2022/01/15 09:55:10;;;;;;;11.90;6.07;;;3.60;99.90;3.50;102611.00;;;;5092255;28;20184;-67
2022/01/15 09:57:38;;;;;;;0.43;0.43;;;3.70;99.90;3.70;102641.00;;;;5101009;28;20275;-67
2022/01/15 10:00:14;;;;;;;7.63;3.67;;;3.70;99.90;3.80;102619.00;;;;5127858;27;20237;-68
2022/01/15 10:02:49;;;;;;;4.23;3.70;;;3.80;99.90;4.00;102641.00;;;;5112232;28;20223;-67
2022/01/15 10:05:16;;;;;;;5.37;2.33;;;3.80;99.90;3.70;102639.00;;;;5087743;28;20685;-68
2022/01/15 10:08:04;;;;;;;2.77;1.43;;;3.90;99.90;3.80;102641.00;;;;5113562;28;20183;-67
2022/01/15 10:10:33;;;;;;;10.67;5.30;;;3.90;99.90;3.60;102631.00;;;;5112451;28;20192;-68
2022/01/15 10:13:28;;;;;;;9.03;5.20;;;4.00;99.90;4.00;102572.00;;;;5094860;28;20211;-67
2022/01/15 10:16:00;;;;;;;6.20;3.17;;;4.00;99.90;3.70;102633.00;;;;5112084;28;20642;-68
2022/01/15 10:18:29;;;;;;;20.87;9.70;;;3.90;99.90;3.50;102622.00;;;;5112208;28;20196;-71
2022/01/15 10:33:15;;;;;;;1.33;1.23;;;3.40;99.90;3.30;102623.00;;;;5106510;27;1401805;-66
2022/01/15 10:35:43;;;;;;;4.07;1.00;;;3.50;99.90;4.00;102596.00;;;;5129626;28;20195;-67
2022/01/15 10:38:16;;;;;;;0.47;0.47;;;3.90;99.90;3.90;102633.00;;;;5129610;28;20195;-67
2022/01/15 10:40:53;;;;;;;3.93;3.03;;;4.00;99.90;4.10;102635.00;;;;5129965;28;20183;-67
2022/01/15 10:43:21;;;;;;;3.10;2.87;;;4.10;99.90;4.40;102634.00;;;;5129441;28;20194;-66
2022/01/15 10:45:55;;;;;;;4.13;3.03;;;4.20;99.90;4.10;102626.00;;;;5112722;28;20179;-67
2022/01/15 10:48:31;;;;;;;0.57;0.57;;;4.30;99.90;4.30;102628.00;;;;5129569;28;20179;-66
2022/01/15 10:51:07;;;;;;;1.57;1.47;;;4.30;99.90;4.10;102632.00;;;;5130685;27;20638;-67
2022/01/15 10:54:01;;;;;;;0.73;0.73;;;4.30;99.90;4.60;102622.00;;;;5130713;27;20184;-67
2022/01/15 10:56:27;;;;;;;3.77;3.47;;;4.40;99.90;4.40;102619.00;;;;5126837;28;20349;-68
2022/01/15 10:59:08;;;;;;;3.97;2.10;;;4.50;99.90;5.00;102615.00;;;;5129250;28;20267;-67
2022/01/15 11:01:35;;;;;;;1.33;1.30;;;4.60;99.90;4.20;102600.00;;;;5111396;28;20178;-67
2022/01/15 11:04:03;;;;;;;0.30;0.30;;;4.50;99.90;4.40;102602.00;;;;5129491;28;20196;-65
2022/01/15 11:06:37;;;;;;;4.87;4.43;;;4.50;99.90;3.90;102596.00;;;;5129236;28;20247;-66
2022/01/15 11:09:09;;;;;;;2.40;2.30;;;4.30;99.90;4.30;102564.00;;;;5129062;28;20190;-66
2022/01/15 11:11:52;;;;;;;11.83;6.57;;;4.40;99.90;4.10;102589.00;;;;5137238;27;20226;-66
2022/01/15 11:14:18;;;;;;;4.60;4.23;;;4.40;99.90;4.20;102596.00;;;;5129346;28;20214;-65
2022/01/15 11:16:44;;;;;;;9.83;5.93;;;4.30;99.90;4.30;102584.00;;;;5130284;28;20188;-65
2022/01/15 11:19:10;;;;;;;1.60;1.37;;;4.40;99.90;4.90;102589.00;;;;5129914;27;20196;-66
2022/01/15 11:21:36;;;;;;;9.37;8.47;;;4.70;99.90;4.90;102581.00;;;;5119528;28;20188;-65
2022/01/15 11:24:06;;;;;;;9.13;5.40;;;4.80;99.90;4.70;102584.00;;;;5097250;28;20199;-65
2022/01/15 11:26:36;;;;;;;1.80;1.70;;;4.80;99.90;5.00;102578.00;;;;5124812;28;20180;-64
2022/01/15 11:29:02;;;;;;;3.03;2.77;;;4.90;99.90;5.10;102585.00;;;;5128677;28;20182;-65
2022/01/15 11:31:32;;;;;;;13.20;3.73;;;5.00;99.90;4.70;102571.00;;;;5129447;28;20207;-65
2022/01/15 11:34:05;;;;;;;12.27;6.47;;;5.00;99.90;4.70;102574.00;;;;5128454;28;20238;-65
2022/01/15 11:36:31;;;;;;;2.23;2.13;;;5.00;99.90;5.10;102572.00;;;;5128864;28;20200;-65
2022/01/15 11:39:01;;;;;;;1.70;1.60;;;5.10;99.90;5.40;102566.00;;;;5129478;28;20190;-67
2022/01/15 11:41:26;;;;;;;1.90;1.80;;;5.30;99.90;4.90;102559.00;;;;5128318;28;20725;-69
2022/01/15 11:43:59;;;;;;;5.80;4.03;;;5.10;99.90;5.50;102560.00;;;;5120320;28;20180;-66
2022/01/15 11:46:47;;;;;;;4.40;3.97;;;5.30;99.90;5.00;102548.00;;;;5116133;28;20233;-66